Time;durP1;ratioP1;P1;durP2;ratioP2;P2;SDS_P1;SDS_P2;PMS_P1;PMS_P2;Temp;Humidity;BMP_temperature;BMP_pressure;BME280_temperature;BME280_humidity;BME280_pressure;Samples;Min_cycle;Max_cycle;Signal;HPM_P1;HPM_P2
2021/03/15 00:00:20;;;;;;;12.43;4.83;;;;;;;4.10;76.33;100093.06;5064602;28;20219;-66
2021/03/15 00:02:47;;;;;;;7.93;3.73;;;;;;;4.11;76.34;100083.38;5065419;28;20307;-66
2021/03/15 00:05:14;;;;;;;9.43;3.90;;;;;;;4.12;76.65;100083.28;5069024;28;20653;-66
2021/03/15 00:07:41;;;;;;;12.57;3.60;;;;;;;4.12;76.57;100083.28;5070828;28;20731;-66
2021/03/15 00:10:09;;;;;;;10.03;3.67;;;;;;;4.13;77.09;100087.63;5076786;28;20212;-66
2021/03/15 00:12:37;;;;;;;8.43;3.57;;;;;;;4.13;76.67;100082.34;5067130;28;20210;-66
2021/03/15 00:15:05;;;;;;;11.80;4.00;;;;;;;4.14;76.38;100084.06;5066238;28;20251;-66
2021/03/15 00:17:31;;;;;;;10.10;3.50;;;;;;;4.14;77.07;100084.06;5071410;28;20311;-66
2021/03/15 00:19:57;;;;;;;7.00;4.03;;;;;;;4.15;76.57;100085.78;5068984;28;20205;-66
2021/03/15 00:22:23;;;;;;;10.60;3.30;;;;;;;4.16;77.11;100086.63;5071144;28;20205;-65
2021/03/15 00:24:49;;;;;;;8.37;3.40;;;;;;;4.16;76.77;100079.59;5073152;28;20221;-66
2021/03/15 00:27:15;;;;;;;9.47;3.33;;;;;;;4.19;76.80;100078.59;5063912;28;20231;-66
2021/03/15 00:29:42;;;;;;;10.20;4.10;;;;;;;4.22;76.77;100078.47;5070570;28;20701;-65
2021/03/15 00:32:09;;;;;;;7.47;3.53;;;;;;;4.24;77.25;100078.38;5066073;28;20221;-66
2021/03/15 00:34:35;;;;;;;5.43;3.20;;;;;;;4.26;76.90;100073.91;5073869;28;20662;-66
2021/03/15 00:37:01;;;;;;;8.37;3.43;;;;;;;4.26;77.40;100077.41;5073395;28;20221;-66
2021/03/15 00:39:28;;;;;;;7.80;3.00;;;;;;;4.27;77.33;100076.47;5071919;28;20261;-66
2021/03/15 00:41:54;;;;;;;8.53;3.57;;;;;;;4.30;77.16;100089.47;5073264;28;20204;-65
2021/03/15 00:44:20;;;;;;;7.90;3.47;;;;;;;4.32;77.24;100076.22;5075141;28;20218;-65
2021/03/15 00:46:47;;;;;;;9.60;3.83;;;;;;;4.33;77.08;100077.94;5076146;28;20275;-66
2021/03/15 00:49:13;;;;;;;8.53;3.47;;;;;;;4.34;77.62;100082.28;5075409;28;20700;-66
2021/03/15 00:51:40;;;;;;;9.20;4.20;;;;;;;4.35;76.97;100079.59;5074049;28;20210;-66
2021/03/15 00:54:06;;;;;;;10.77;3.83;;;;;;;4.37;76.99;100079.53;5076258;28;20563;-66
2021/03/15 00:56:33;;;;;;;8.27;4.00;;;;;;;4.38;77.16;100075.97;5074091;28;20610;-66
2021/03/15 00:58:59;;;;;;;6.13;3.57;;;;;;;4.40;77.36;100074.09;5072973;28;20686;-66
2021/03/15 01:01:25;;;;;;;7.67;3.37;;;;;;;4.40;77.72;100080.22;5072262;28;20209;-66
2021/03/15 01:03:52;;;;;;;9.47;3.40;;;;;;;4.43;77.17;100079.25;5070323;28;20701;-66
2021/03/15 01:06:18;;;;;;;5.73;3.40;;;;;;;4.43;77.72;100077.47;5072289;28;20215;-66
2021/03/15 01:08:44;;;;;;;8.37;3.50;;;;;;;4.43;77.44;100085.38;5071157;28;20224;-66
2021/03/15 01:11:11;;;;;;;4.40;2.73;;;;;;;4.43;77.78;100080.09;5071197;28;20219;-66
2021/03/15 01:13:37;;;;;;;7.00;3.27;;;;;;;4.43;77.22;100076.59;5069882;28;20245;-66
2021/03/15 01:16:04;;;;;;;5.93;3.23;;;;;;;4.42;77.79;100074.91;5070803;28;20197;-66
2021/03/15 01:18:31;;;;;;;4.93;2.70;;;;;;;4.40;77.91;100076.75;5068694;28;20315;-66
2021/03/15 01:20:58;;;;;;;4.87;3.10;;;;;;;4.38;77.80;100071.53;5064420;28;20216;-67
2021/03/15 01:23:25;;;;;;;6.33;2.93;;;;;;;4.35;77.89;100063.78;5071217;28;20213;-66
2021/03/15 01:25:51;;;;;;;4.73;2.33;;;;;;;4.36;78.01;100070.75;5061090;28;20208;-67
2021/03/15 01:28:19;;;;;;;3.83;2.40;;;;;;;4.35;78.04;100071.69;5071324;28;20232;-67
2021/03/15 01:30:46;;;;;;;3.83;2.13;;;;;;;4.33;78.23;100060.34;5068012;28;20590;-66
2021/03/15 01:33:13;;;;;;;4.87;2.80;;;;;;;4.31;78.71;100061.34;5071484;28;20293;-67
2021/03/15 01:35:40;;;;;;;4.33;2.40;;;;;;;4.30;78.21;100062.31;5070391;28;20265;-67
2021/03/15 01:38:07;;;;;;;4.03;2.53;;;;;;;4.26;78.11;100056.31;5070948;28;20319;-67
2021/03/15 01:40:34;;;;;;;4.97;2.43;;;;;;;4.24;78.51;100055.53;5061557;28;20330;-67
2021/03/15 01:43:00;;;;;;;3.20;2.70;;;;;;;4.24;78.37;100044.13;5067310;28;20307;-67
2021/03/15 01:45:27;;;;;;;3.03;2.10;;;;;;;4.19;79.03;100045.19;5071559;28;20205;-67
2021/03/15 01:47:53;;;;;;;6.90;2.83;;;;;;;4.15;79.36;100043.63;5070938;28;20681;-67
2021/03/15 01:50:21;;;;;;;4.37;3.20;;;;;;;4.15;79.06;100035.72;5068814;28;20300;-67
2021/03/15 01:52:48;;;;;;;6.70;3.10;;;;;;;4.11;78.73;100034.16;5070260;28;20236;-67
2021/03/15 01:55:17;;;;;;;6.03;2.70;;;;;;;4.11;79.52;100030.69;5070281;28;20688;-67
2021/03/15 01:57:43;;;;;;;3.83;3.07;;;;;;;4.07;78.95;100032.59;5070995;28;20235;-67
2021/03/15 02:00:11;;;;;;;4.47;2.90;;;;;;;4.03;78.91;100028.38;5070394;28;20216;-66
2021/03/15 02:02:40;;;;;;;5.50;3.10;;;;;;;3.99;79.53;100024.19;5070105;28;20211;-67
2021/03/15 02:05:07;;;;;;;4.43;3.20;;;;;;;3.95;79.27;100019.97;5070560;28;20211;-67
2021/03/15 02:07:33;;;;;;;3.43;2.90;;;;;;;3.89;79.04;100014.16;5069147;28;20221;-67
2021/03/15 02:09:59;;;;;;;3.93;2.53;;;;;;;3.84;79.36;100009.94;5070616;28;20228;-66
2021/03/15 02:12:41;;;;;;;3.00;2.53;;;;;;;3.81;79.29;100017.13;5069086;28;20632;-66
2021/03/15 02:15:15;;;;;;;2.27;2.00;;;;;;;3.77;79.96;100018.19;5070859;28;20292;-67
2021/03/15 02:17:47;;;;;;;4.30;2.10;;;;;;;3.72;80.02;100012.28;5070123;28;20227;-67
2021/03/15 02:20:36;;;;;;;3.53;1.80;;;;;;;3.67;79.88;100006.38;5071659;28;20250;-67
2021/03/15 02:23:06;;;;;;;2.47;1.80;;;;;;;3.62;80.05;100006.56;5064928;28;20211;-67
2021/03/15 02:26:10;;;;;;;2.03;1.87;;;;;;;3.58;80.03;100005.03;5069091;28;20209;-67
2021/03/15 02:29:20;;;;;;;2.20;2.00;;;;;;;3.53;79.75;100001.72;5068705;28;20250;-67
2021/03/15 02:32:23;;;;;;;2.53;2.30;;;;;;;3.49;79.81;100001.00;5069449;28;20197;-67
2021/03/15 02:35:03;;;;;;;2.67;2.47;;;;;;;3.45;79.50;99990.66;5067258;28;20233;-67
2021/03/15 02:37:33;;;;;;;3.17;2.87;;;;;;;3.43;79.80;99988.09;5067685;28;20634;-67
2021/03/15 02:40:05;;;;;;;3.53;3.20;;;;;;;3.41;80.33;99991.72;5066515;28;20236;-67
2021/03/15 02:42:31;;;;;;;3.73;3.33;;;;;;;3.38;80.57;99990.09;5069225;28;20277;-67
2021/03/15 02:44:58;;;;;;;3.90;3.60;;;;;;;3.37;80.17;99988.41;5064723;28;20198;-66
2021/03/15 02:47:29;;;;;;;4.30;3.90;;;;;;;3.35;79.96;99987.59;5068532;28;20714;-66
2021/03/15 02:50:00;;;;;;;4.03;3.73;;;;;;;3.34;79.98;99980.63;5070053;28;20307;-66
2021/03/15 02:52:30;;;;;;;4.50;4.10;;;;;;;3.32;80.28;99984.25;5066096;28;20287;-66
2021/03/15 02:54:59;;;;;;;4.93;4.43;;;;;;;3.31;80.86;99986.03;5071039;28;20259;-66
2021/03/15 02:57:28;;;;;;;4.60;4.20;;;;;;;3.30;80.14;99978.19;5070587;28;20228;-66
2021/03/15 02:59:57;;;;;;;4.20;3.80;;;;;;;3.27;80.37;99979.19;5070321;28;20327;-67
2021/03/15 03:02:25;;;;;;;4.23;3.83;;;;;;;3.22;80.58;99978.56;5070407;28;20311;-66
2021/03/15 03:04:52;;;;;;;4.23;3.83;;;;;;;3.19;80.68;99980.47;5070106;28;20204;-66
2021/03/15 03:07:21;;;;;;;4.93;4.43;;;;;;;3.16;80.77;99970.91;5069878;28;20239;-67
2021/03/15 03:09:49;;;;;;;4.27;3.87;;;;;;;3.12;80.51;99970.19;5066193;28;20244;-66
2021/03/15 03:12:17;;;;;;;4.20;3.80;;;;;;;3.12;81.11;99967.56;5068560;28;20204;-66
2021/03/15 03:14:46;;;;;;;4.30;3.90;;;;;;;3.08;80.35;99962.50;5070080;28;20204;-67
2021/03/15 03:17:12;;;;;;;4.43;4.00;;;;;;;3.06;80.53;99964.31;5062196;28;20311;-66
2021/03/15 03:19:41;;;;;;;3.77;3.47;;;;;;;3.02;80.74;99962.78;5070431;28;20216;-66
2021/03/15 03:22:09;;;;;;;3.97;3.67;;;;;;;2.99;80.53;99955.88;5069107;28;20205;-66
2021/03/15 03:24:36;;;;;;;4.20;3.80;;;;;;;2.98;80.79;99954.16;5064683;28;20197;-66
2021/03/15 03:27:05;;;;;;;4.67;4.17;;;;;;;2.95;81.23;99948.16;5069032;28;20229;-66
2021/03/15 03:29:32;;;;;;;4.33;3.87;;;;;;;2.92;81.26;99950.94;5061235;28;20597;-66
2021/03/15 03:31:59;;;;;;;4.63;4.13;;;;;;;2.89;81.46;99948.41;5057529;28;20201;-66
2021/03/15 03:34:25;;;;;;;4.90;4.40;;;;;;;2.88;80.60;99949.34;5069269;28;20315;-66
2021/03/15 03:36:51;;;;;;;4.87;4.37;;;;;;;2.87;80.80;99947.63;5065522;28;20227;-66
2021/03/15 03:39:18;;;;;;;4.70;4.23;;;;;;;2.87;81.61;99945.84;5057299;28;20280;-66
2021/03/15 03:41:44;;;;;;;5.63;4.90;;;;;;;2.85;81.43;99952.13;5064492;28;20257;-66
2021/03/15 03:44:12;;;;;;;5.87;4.80;;;;;;;2.83;81.06;99944.31;5068052;28;20200;-66
2021/03/15 03:46:40;;;;;;;5.80;4.80;;;;;;;2.82;81.23;99949.63;5060502;28;20217;-66
2021/03/15 03:49:07;;;;;;;5.77;5.13;;;;;;;2.79;81.17;99948.84;5068784;28;20228;-66
2021/03/15 03:51:40;;;;;;;5.40;4.90;;;;;;;2.78;81.84;99947.13;5060662;28;20211;-66
2021/03/15 03:54:11;;;;;;;5.53;4.80;;;;;;;2.77;81.32;99958.56;5065851;28;20574;-66
2021/03/15 03:56:44;;;;;;;5.47;4.90;;;;;;;2.77;81.22;99952.44;5066705;28;20224;-66
2021/03/15 03:59:16;;;;;;;5.53;5.00;;;;;;;2.74;81.27;99950.78;5061436;28;20201;-66
2021/03/15 04:01:44;;;;;;;5.70;4.83;;;;;;;2.74;81.62;99958.69;5066467;28;20205;-66
2021/03/15 04:04:16;;;;;;;5.77;5.10;;;;;;;2.75;81.99;99956.91;5064397;28;20233;-66
2021/03/15 04:06:44;;;;;;;5.33;4.77;;;;;;;2.74;82.00;99961.31;5059899;28;20225;-66
2021/03/15 04:09:12;;;;;;;6.37;4.93;;;;;;;2.73;81.61;99959.59;5059269;28;20315;-67
2021/03/15 04:11:42;;;;;;;5.87;5.27;;;;;;;2.73;82.07;99967.50;5060331;28;20677;-66
2021/03/15 04:14:13;;;;;;;6.20;5.53;;;;;;;2.73;81.78;99956.97;5060326;28;20659;-67
2021/03/15 04:16:42;;;;;;;5.53;4.90;;;;;;;2.75;82.26;99964.78;5056583;28;20221;-66
2021/03/15 04:19:09;;;;;;;5.50;5.00;;;;;;;2.72;81.81;99955.25;5069657;28;20217;-66
2021/03/15 04:21:38;;;;;;;5.57;4.97;;;;;;;2.70;81.98;99961.50;5068562;28;20228;-66
2021/03/15 04:24:07;;;;;;;6.53;5.10;;;;;;;2.68;82.13;99953.72;5062952;28;20213;-67
2021/03/15 04:26:34;;;;;;;5.37;4.53;;;;;;;2.66;81.56;99954.69;5059605;28;20570;-66
2021/03/15 04:29:01;;;;;;;5.53;4.87;;;;;;;2.63;81.57;99952.19;5066907;28;20225;-66
2021/03/15 04:31:29;;;;;;;5.07;4.53;;;;;;;2.62;81.59;99953.94;5057311;28;20308;-66
2021/03/15 04:33:55;;;;;;;5.23;4.73;;;;;;;2.59;81.69;99953.22;5065080;28;20207;-66
2021/03/15 04:36:22;;;;;;;5.33;4.83;;;;;;;2.57;82.02;99955.91;5066076;28;20201;-66
2021/03/15 04:38:50;;;;;;;5.17;4.67;;;;;;;2.56;82.40;99948.94;5072754;28;20233;-66
2021/03/15 04:41:16;;;;;;;5.80;4.63;;;;;;;2.58;82.19;99965.50;5068265;28;20208;-66
2021/03/15 04:43:47;;;;;;;4.70;4.23;;;;;;;2.59;82.56;99959.31;5060805;28;20671;-66
2021/03/15 04:46:13;;;;;;;4.93;4.30;;;;;;;2.61;82.64;99956.63;5058817;28;20202;-66
2021/03/15 04:48:43;;;;;;;4.67;4.20;;;;;;;2.62;82.32;99958.34;5063436;28;20240;-66
2021/03/15 04:51:10;;;;;;;4.97;4.47;;;;;;;2.62;81.94;99964.47;5079260;28;20215;-66
2021/03/15 04:53:39;;;;;;;4.77;4.13;;;;;;;2.64;82.46;99959.16;5065476;28;20672;-66
2021/03/15 04:56:09;;;;;;;5.20;4.53;;;;;;;2.65;82.48;99964.34;5073608;28;20205;-66
2021/03/15 04:58:36;;;;;;;5.67;4.67;;;;;;;2.66;82.57;99963.44;5063978;28;20224;-66
2021/03/15 05:01:04;;;;;;;5.73;4.43;;;;;;;2.66;82.94;99950.28;5066196;28;20201;-66
2021/03/15 05:03:32;;;;;;;5.57;4.97;;;;;;;2.68;82.26;99958.97;5071206;28;20423;-66
2021/03/15 05:06:00;;;;;;;6.00;4.80;;;;;;;2.71;82.66;99963.22;5060537;28;20206;-66
2021/03/15 05:08:28;;;;;;;5.00;4.10;;;;;;;2.72;82.60;99955.25;5069994;28;20644;-66
2021/03/15 05:10:55;;;;;;;6.27;5.20;;;;;;;2.74;82.83;99952.56;5063578;28;20201;-66
2021/03/15 05:13:23;;;;;;;6.00;5.00;;;;;;;2.75;82.47;99963.03;5072125;28;20555;-66
2021/03/15 05:15:50;;;;;;;7.00;5.37;;;;;;;2.77;82.69;99955.94;5071958;28;20225;-66
2021/03/15 05:18:17;;;;;;;6.23;5.13;;;;;;;2.79;82.88;99961.97;5070596;28;20217;-66
2021/03/15 05:20:46;;;;;;;6.00;5.33;;;;;;;2.81;82.81;99961.06;5068271;28;20220;-66
2021/03/15 05:23:14;;;;;;;6.17;5.20;;;;;;;2.82;82.95;99944.38;5063924;28;20210;-65
2021/03/15 05:25:43;;;;;;;6.63;5.50;;;;;;;2.83;82.99;99946.06;5069005;28;20304;-66
2021/03/15 05:28:11;;;;;;;7.23;5.37;;;;;;;2.83;83.23;99944.31;5066210;28;20269;-66
2021/03/15 05:30:39;;;;;;;7.13;5.37;;;;;;;2.84;82.75;99955.69;5070896;28;20710;-66
2021/03/15 05:33:10;;;;;;;7.50;5.50;;;;;;;2.84;83.33;99945.16;5068697;28;20215;-66
2021/03/15 05:35:37;;;;;;;7.07;5.90;;;;;;;2.84;83.27;99950.41;5069572;28;20205;-66
2021/03/15 05:38:03;;;;;;;7.47;5.63;;;;;;;2.86;83.36;99959.09;5068453;28;20749;-66
2021/03/15 05:40:31;;;;;;;7.63;5.60;;;;;;;2.87;83.35;99947.63;5069981;28;20666;-66
2021/03/15 05:43:29;;;;;;;6.50;5.53;;;;;;;2.88;82.90;99958.09;5069743;28;20201;-66
2021/03/15 05:46:12;;;;;;;6.00;5.10;;;;;;;2.91;82.84;99954.47;5067487;28;20232;-66
2021/03/15 05:49:00;;;;;;;7.30;5.07;;;;;;;2.90;83.37;99953.63;5064400;28;20339;-65
2021/03/15 05:51:47;;;;;;;7.13;5.70;;;;;;;2.92;83.50;99957.03;5069351;28;20204;-65
2021/03/15 05:54:43;;;;;;;7.70;5.47;;;;;;;2.95;82.47;99956.06;5068835;28;20197;-66
2021/03/15 05:57:35;;;;;;;6.13;5.37;;;;;;;2.95;82.88;99961.31;5056735;28;20314;-66
2021/03/15 06:00:06;;;;;;;7.00;5.27;;;;;;;2.97;82.86;99956.84;5058225;28;20196;-65
2021/03/15 06:03:00;;;;;;;8.27;5.87;;;;;;;2.99;82.81;99952.38;5065904;28;20223;-65
2021/03/15 06:05:28;;;;;;;7.93;5.80;;;;;;;3.00;82.76;99954.09;5066467;28;20201;-65
2021/03/15 06:08:02;;;;;;;7.37;5.97;;;;;;;2.99;83.12;99953.25;5064854;28;20243;-65
2021/03/15 06:10:40;;;;;;;8.67;6.00;;;;;;;3.00;83.34;99947.06;5066405;28;20220;-65
2021/03/15 06:13:13;;;;;;;7.07;5.90;;;;;;;3.02;83.54;99947.84;5068526;28;20574;-65
2021/03/15 06:15:41;;;;;;;7.10;6.10;;;;;;;3.04;82.85;99955.69;5070621;28;20519;-65
2021/03/15 06:18:09;;;;;;;6.97;5.53;;;;;;;3.04;82.62;99947.78;5069006;28;20224;-66
2021/03/15 06:20:37;;;;;;;6.97;5.43;;;;;;;3.05;83.20;99949.47;5067279;28;20632;-66
2021/03/15 06:23:05;;;;;;;8.93;6.70;;;;;;;3.06;83.74;99941.50;5068979;28;20485;-67
2021/03/15 06:25:31;;;;;;;8.00;6.57;;;;;;;3.08;83.89;99944.94;5069854;28;20197;-67
2021/03/15 06:27:58;;;;;;;6.83;5.90;;;;;;;3.09;83.39;99949.28;5067021;28;20239;-66
2021/03/15 06:30:26;;;;;;;11.23;6.90;;;;;;;3.11;83.53;99946.56;5066562;28;20217;-67
2021/03/15 06:32:54;;;;;;;7.90;6.27;;;;;;;3.12;82.93;99943.88;5067634;28;20201;-68
2021/03/15 06:35:23;;;;;;;9.00;6.47;;;;;;;3.15;83.16;99942.91;5068674;28;20208;-69
2021/03/15 06:37:50;;;;;;;8.23;6.10;;;;;;;3.17;83.40;99941.06;5069933;28;20228;-70
2021/03/15 06:40:18;;;;;;;8.70;6.30;;;;;;;3.19;83.97;99944.47;5070245;28;20197;-70
2021/03/15 06:42:45;;;;;;;7.83;6.07;;;;;;;3.23;84.05;99945.16;5068456;28;20205;-69
2021/03/15 06:45:14;;;;;;;8.87;6.60;;;;;;;3.26;83.75;99955.56;5069865;28;20242;-70
2021/03/15 06:47:41;;;;;;;9.30;6.60;;;;;;;3.29;83.75;99952.78;5069507;28;20228;-70
2021/03/15 06:50:08;;;;;;;7.63;6.47;;;;;;;3.31;84.18;99959.72;5062580;28;20232;-69
2021/03/15 06:52:54;;;;;;;9.23;7.47;;;;;;;3.33;83.79;99963.13;5062587;28;20246;-70
2021/03/15 06:55:21;;;;;;;10.03;7.20;;;;;;;3.35;83.63;99969.19;5067347;28;20211;-70
2021/03/15 06:57:47;;;;;;;10.80;7.67;;;;;;;3.37;84.11;99977.88;5069806;28;20217;-69
2021/03/15 07:00:16;;;;;;;9.57;7.60;;;;;;;3.42;83.92;99972.38;5066411;28;20671;-70
2021/03/15 07:02:43;;;;;;;7.63;5.93;;;;;;;3.46;84.37;99987.13;5066767;28;20305;-71
2021/03/15 07:05:11;;;;;;;9.13;6.97;;;;;;;3.48;83.57;99982.63;5068655;28;20242;-70
2021/03/15 07:07:38;;;;;;;9.70;6.87;;;;;;;3.53;84.16;99995.59;5064319;28;20268;-70
2021/03/15 07:10:15;;;;;;;8.57;6.70;;;;;;;3.56;83.63;99990.22;5063197;28;20229;-70
2021/03/15 07:12:42;;;;;;;9.97;6.50;;;;;;;3.60;84.36;99997.03;5065117;28;20216;-70
2021/03/15 07:15:09;;;;;;;9.33;6.47;;;;;;;3.62;83.99;99989.91;5068102;28;20739;-69
2021/03/15 07:17:35;;;;;;;8.30;6.37;;;;;;;3.66;84.47;100000.25;5070179;28;20220;-70
2021/03/15 07:20:04;;;;;;;8.97;7.10;;;;;;;3.70;83.58;100008.88;5069198;28;20205;-69
2021/03/15 07:22:31;;;;;;;7.93;5.63;;;;;;;3.70;84.48;99998.34;5068218;28;20205;-70
2021/03/15 07:25:08;;;;;;;8.90;6.13;;;;;;;3.72;84.15;100004.38;5068204;28;20288;-69
2021/03/15 07:27:36;;;;;;;8.00;5.97;;;;;;;3.74;83.70;100002.53;5068246;28;20270;-70
2021/03/15 07:30:31;;;;;;;9.00;6.07;;;;;;;3.77;83.57;100008.50;5069168;28;20677;-69
2021/03/15 07:33:00;;;;;;;8.23;6.27;;;;;;;3.80;83.48;99999.59;5065262;28;20209;-70
2021/03/15 07:35:30;;;;;;;8.10;6.17;;;;;;;3.82;83.48;100003.03;5067628;28;20201;-70
2021/03/15 07:37:56;;;;;;;7.83;6.00;;;;;;;3.86;84.24;100003.75;5069070;28;20224;-70
2021/03/15 07:40:34;;;;;;;7.13;5.33;;;;;;;3.89;84.10;100008.88;5062745;28;20193;-71
2021/03/15 07:43:02;;;;;;;8.50;5.73;;;;;;;3.92;84.29;100012.22;5065581;28;20207;-70
2021/03/15 07:45:30;;;;;;;7.43;5.10;;;;;;;3.96;84.22;100012.91;5068236;28;20212;-70
2021/03/15 07:48:22;;;;;;;7.17;5.57;;;;;;;3.99;83.66;100020.69;5069283;28;20221;-70
2021/03/15 07:50:58;;;;;;;5.60;4.67;;;;;;;4.03;83.88;100022.25;5067576;28;20228;-70
2021/03/15 07:53:42;;;;;;;8.57;5.53;;;;;;;4.07;84.25;100014.16;5068606;28;20267;-70
2021/03/15 07:56:10;;;;;;;4.97;4.17;;;;;;;4.08;84.13;100018.50;5067448;28;20207;-70
2021/03/15 07:58:38;;;;;;;5.13;4.47;;;;;;;4.10;83.48;100023.69;5066900;28;20793;-69
2021/03/15 08:01:06;;;;;;;5.00;4.10;;;;;;;4.14;83.45;100018.19;5064280;28;20209;-70
2021/03/15 08:03:32;;;;;;;7.10;4.67;;;;;;;4.17;84.10;100009.28;5068075;28;20205;-70
2021/03/15 08:06:01;;;;;;;6.17;3.53;;;;;;;4.24;83.87;100016.00;5069160;28;20692;-69
2021/03/15 08:08:27;;;;;;;7.90;4.23;;;;;;;4.30;84.24;100014.84;5067974;28;20233;-69
2021/03/15 08:10:54;;;;;;;8.67;4.87;;;;;;;4.37;83.65;100010.97;5065533;28;20231;-70
2021/03/15 08:13:22;;;;;;;6.90;4.20;;;;;;;4.43;83.48;100013.31;5065579;28;20254;-70
2021/03/15 08:15:50;;;;;;;7.00;4.23;;;;;;;4.49;83.83;100013.00;5074349;28;20205;-70
2021/03/15 08:18:22;;;;;;;5.70;3.70;;;;;;;4.52;83.70;100013.72;5065814;28;20315;-70
2021/03/15 08:20:51;;;;;;;6.30;4.40;;;;;;;4.57;83.16;100010.88;5064498;28;20200;-70
2021/03/15 08:23:18;;;;;;;9.90;4.57;;;;;;;4.62;83.19;100008.88;5067899;28;20571;-70
2021/03/15 08:25:46;;;;;;;5.73;3.83;;;;;;;4.70;83.29;100014.59;5062983;28;20203;-70
2021/03/15 08:28:13;;;;;;;5.30;3.40;;;;;;;4.76;82.93;100016.94;5072426;28;20266;-70
2021/03/15 08:30:46;;;;;;;4.53;3.20;;;;;;;4.82;82.91;100010.53;5070188;28;20664;-70
2021/03/15 08:33:14;;;;;;;5.27;3.20;;;;;;;4.89;82.64;100009.28;5069131;28;20200;-71
2021/03/15 08:35:41;;;;;;;5.43;3.10;;;;;;;4.95;82.63;100014.25;5071315;28;20211;-69
2021/03/15 08:38:08;;;;;;;4.70;2.77;;;;;;;5.02;82.75;100012.13;5072529;28;20224;-70
2021/03/15 08:40:55;;;;;;;6.10;2.80;;;;;;;5.08;82.70;100010.03;5072126;28;20211;-69
2021/03/15 08:43:38;;;;;;;5.53;2.90;;;;;;;5.15;82.36;100008.81;5072098;28;20335;-69
2021/03/15 08:46:06;;;;;;;9.83;3.03;;;;;;;5.23;82.30;100005.75;5072321;28;20639;-70
2021/03/15 08:49:03;;;;;;;3.93;2.57;;;;;;;5.29;82.06;100008.09;5072472;28;20225;-70
2021/03/15 08:51:48;;;;;;;3.20;1.90;;;;;;;5.37;81.64;100005.94;5068283;28;20201;-70
2021/03/15 08:54:17;;;;;;;2.57;1.93;;;;;;;5.43;81.08;100010.88;5068931;28;20238;-70
2021/03/15 08:56:47;;;;;;;4.67;2.33;;;;;;;5.49;81.23;100004.41;5070709;28;20259;-70
2021/03/15 08:59:14;;;;;;;5.23;2.37;;;;;;;5.55;80.63;99996.19;5069971;28;20199;-70
2021/03/15 09:01:58;;;;;;;5.83;2.80;;;;;;;5.62;80.34;100007.25;5070951;28;20213;-69
2021/03/15 09:04:33;;;;;;;6.00;2.90;;;;;;;5.69;80.31;99995.44;5072921;28;20674;-69
2021/03/15 09:07:01;;;;;;;8.77;2.83;;;;;;;5.73;79.80;100000.44;5071361;28;20230;-70
2021/03/15 09:09:29;;;;;;;5.60;2.70;;;;;;;5.81;79.74;99997.41;5061761;28;20320;-70
2021/03/15 09:11:56;;;;;;;5.00;2.57;;;;;;;5.88;79.67;100009.38;5064797;28;20201;-69
2021/03/15 09:14:37;;;;;;;10.67;5.57;;;;;;;5.89;79.29;100005.81;5063518;28;20726;-70
2021/03/15 09:17:31;;;;;;;4.67;2.57;;;;;;;5.92;78.73;100008.28;5070602;28;20736;-70
2021/03/15 09:19:58;;;;;;;7.70;2.70;;;;;;;5.94;78.74;100006.41;5069330;28;20572;-70
2021/03/15 09:22:25;;;;;;;3.73;2.57;;;;;;;5.97;78.62;100008.88;5072261;28;20304;-70
2021/03/15 09:24:53;;;;;;;5.13;2.97;;;;;;;5.97;78.37;100005.38;5067775;28;20215;-70
2021/03/15 09:27:26;;;;;;;5.63;3.17;;;;;;;5.98;77.94;100002.66;5070388;28;20227;-69
2021/03/15 09:29:54;;;;;;;3.63;2.40;;;;;;;5.99;77.48;100007.00;5066024;28;20217;-70
2021/03/15 09:32:27;;;;;;;8.97;3.23;;;;;;;5.99;77.44;100000.88;5066595;28;20204;-70
2021/03/15 09:34:54;;;;;;;7.17;3.70;;;;;;;6.01;77.63;99989.28;5071228;28;21669;-69
2021/03/15 09:37:20;;;;;;;9.17;3.17;;;;;;;6.08;77.15;99992.44;5070306;28;20224;-70
2021/03/15 09:39:46;;;;;;;10.20;3.97;;;;;;;6.12;77.14;99986.88;5070754;28;20201;-70
2021/03/15 09:42:13;;;;;;;5.83;3.50;;;;;;;6.13;76.72;99999.16;5070582;28;20265;-70
2021/03/15 09:44:42;;;;;;;8.63;3.93;;;;;;;6.14;76.50;100000.88;5071940;28;20205;-70
2021/03/15 09:47:08;;;;;;;6.10;3.03;;;;;;;6.16;76.36;99995.50;5065527;28;20229;-71
2021/03/15 09:49:37;;;;;;;7.97;3.53;;;;;;;6.17;76.03;99998.06;5069915;28;20221;-70
2021/03/15 09:52:15;;;;;;;7.23;3.27;;;;;;;6.16;75.99;99991.06;5062174;28;20216;-71
2021/03/15 09:54:42;;;;;;;7.60;3.23;;;;;;;6.16;75.84;99996.38;5067713;28;20608;-71
2021/03/15 09:57:09;;;;;;;7.13;3.40;;;;;;;6.17;75.90;99991.94;5068004;28;20601;-70
2021/03/15 09:59:36;;;;;;;7.67;3.70;;;;;;;6.21;75.80;99994.31;5068582;28;20228;-70
2021/03/15 10:02:03;;;;;;;8.63;3.03;;;;;;;6.27;75.87;99995.75;5064575;28;20197;-71
2021/03/15 10:04:36;;;;;;;5.23;2.83;;;;;;;6.32;75.45;99998.16;5070570;28;20207;-70
2021/03/15 10:07:05;;;;;;;6.33;3.73;;;;;;;6.33;75.38;99991.91;5063668;28;20221;-70
2021/03/15 10:09:32;;;;;;;6.10;2.97;;;;;;;6.35;75.38;100000.63;5069001;28;20607;-70
2021/03/15 10:12:00;;;;;;;6.97;2.50;;;;;;;6.38;76.15;100001.31;5065436;28;21500;-71
2021/03/15 10:14:26;;;;;;;7.33;2.87;;;;;;;6.40;75.22;99994.16;5070878;28;20246;-70
2021/03/15 10:16:57;;;;;;;8.20;3.50;;;;;;;6.39;75.43;99992.44;5066416;28;20691;-70
2021/03/15 10:19:27;;;;;;;8.57;3.53;;;;;;;6.42;75.53;100000.19;5066835;28;20299;-71
2021/03/15 10:21:53;;;;;;;9.23;3.30;;;;;;;6.45;75.58;100004.47;5066357;28;20608;-70
2021/03/15 10:24:36;;;;;;;6.83;2.63;;;;;;;6.47;75.48;100000.78;5069650;28;20293;-70
2021/03/15 10:27:03;;;;;;;6.10;3.33;;;;;;;6.48;75.26;99991.91;5069527;28;20752;-69
2021/03/15 10:29:29;;;;;;;7.57;2.83;;;;;;;6.49;75.26;100003.34;5067932;28;20221;-70
2021/03/15 10:32:00;;;;;;;3.17;1.90;;;;;;;6.49;75.41;100003.34;5065358;28;20207;-70
2021/03/15 10:34:27;;;;;;;5.47;1.83;;;;;;;6.46;75.76;99999.06;5068062;28;20247;-69
2021/03/15 10:36:53;;;;;;;4.20;2.10;;;;;;;6.45;75.40;100005.28;5069237;28;20228;-70
2021/03/15 10:39:21;;;;;;;5.90;2.30;;;;;;;6.45;74.91;100001.81;5069751;28;20582;-70
2021/03/15 10:41:48;;;;;;;5.63;2.63;;;;;;;6.46;75.18;99987.63;5067185;28;20205;-70
2021/03/15 10:44:17;;;;;;;13.43;7.03;;;;;;;6.45;75.57;99992.06;5068098;28;20201;-70
2021/03/15 10:46:48;;;;;;;6.77;3.77;;;;;;;6.48;75.47;99988.41;5068836;28;20262;-70
2021/03/15 10:49:16;;;;;;;5.30;3.23;;;;;;;6.53;75.33;99981.06;5068893;28;20264;-70
2021/03/15 10:51:45;;;;;;;5.57;3.33;;;;;;;6.56;75.77;99983.53;5068568;28;20335;-70
2021/03/15 10:54:11;;;;;;;7.73;3.63;;;;;;;6.59;75.99;99988.66;5071420;28;20216;-70
2021/03/15 10:56:37;;;;;;;6.30;2.70;;;;;;;6.61;75.77;99986.78;5066143;28;20229;-70
2021/03/15 10:59:04;;;;;;;13.47;3.80;;;;;;;6.60;75.70;99988.56;5075737;28;20201;-69
2021/03/15 11:01:30;;;;;;;14.13;4.60;;;;;;;6.61;75.81;99978.84;5071096;28;20217;-71
2021/03/15 11:04:09;;;;;;;5.77;3.50;;;;;;;6.61;75.86;99981.50;5065526;28;20819;-70
2021/03/15 11:06:35;;;;;;;5.83;2.43;;;;;;;6.62;75.80;99985.84;5068268;28;20559;-71
2021/03/15 11:09:03;;;;;;;6.40;2.77;;;;;;;6.63;76.00;99985.72;5070103;28;20636;-70
2021/03/15 11:11:30;;;;;;;7.00;3.13;;;;;;;6.67;75.77;99978.47;5068916;28;20305;-70
2021/03/15 11:13:58;;;;;;;8.53;3.67;;;;;;;6.70;76.00;99970.34;5065142;28;20202;-70
2021/03/15 11:16:27;;;;;;;6.07;3.63;;;;;;;6.75;75.92;99984.19;5066229;28;20204;-71
2021/03/15 11:19:07;;;;;;;5.30;2.23;;;;;;;6.79;75.81;99975.13;5065957;28;20725;-70
2021/03/15 11:21:35;;;;;;;4.47;2.20;;;;;;;6.84;75.86;99956.31;5064948;28;20212;-69
2021/03/15 11:24:03;;;;;;;6.13;2.03;;;;;;;6.83;75.28;99970.47;5074617;28;20225;-70
2021/03/15 11:26:42;;;;;;;7.47;2.07;;;;;;;6.82;75.03;99980.22;5067549;28;20205;-70
2021/03/15 11:29:08;;;;;;;8.60;2.37;;;;;;;6.84;75.09;99980.13;5068121;28;20733;-70
2021/03/15 11:31:34;;;;;;;5.80;2.07;;;;;;;6.85;75.03;99981.84;5068409;28;20211;-71
2021/03/15 11:34:01;;;;;;;4.07;1.90;;;;;;;6.86;74.40;99984.41;5066064;28;20212;-71
2021/03/15 11:36:29;;;;;;;8.73;2.30;;;;;;;6.85;74.79;99987.13;5073580;28;20205;-71
2021/03/15 11:38:57;;;;;;;8.53;3.13;;;;;;;6.82;75.34;99996.09;5070661;28;20726;-70
2021/03/15 11:41:27;;;;;;;6.13;1.60;;;;;;;6.80;75.53;99994.50;5066784;28;20591;-71
2021/03/15 11:43:54;;;;;;;4.03;1.60;;;;;;;6.76;75.36;99983.25;5075394;28;20207;-71
2021/03/15 11:46:20;;;;;;;4.30;1.40;;;;;;;6.74;75.49;99974.53;5069332;28;20560;-71
2021/03/15 11:48:47;;;;;;;4.23;1.30;;;;;;;6.74;75.77;99977.19;5069807;28;20308;-72